2013 Severe Tropical Cyclone VICTORIA (2013097S06099)


IBTrACS version v04r00. Visit IBTrACS website for data access.
Please direct all questions to the IBTrACS Q and A forum

Storm track - Intensity - Wind Radii - Intensity Data - Source Data - All data

Summary Information

Satellite image near maximum intensity
Storm ID 2013097S06099
Start Apr 6 12Z
Max Intensity 75 kt (Apr 10 00Z), 967 mb (Apr 10 06Z)
End Apr 12 02Z
ATCF IDs ,SH222013
Track status Best track data.

Storm track plot

Map of storm track

Intensity plots

Map of storm track

Radial wind information

Map of storm track

Position and Intensity Table

BASIN ISO_TIME_________ NATURE LAT LON WMO WIND WMO PRES USA WIND USA PRES BOM WIND BOM PRES
degrees north degrees east kts mb kts mb kts mb
SI 2013-04-06 12:00:00 NR -5.70 99.20 15 15
SI 14:41:00 NR -5.90 99.30 15
SI 15:00:00 NR -5.92 99.31 15
SI 18:00:00 NR -6.14 99.40 15 1008 15 1008
SI 21:00:00 NR -6.22 99.48 17 1008
SI 23:00:00 NR -6.50 99.54 19 1008
SI 2013-04-07 00:00:00 NR -6.78 99.58 20 1008 20 1008
SI 02:34:00 NR -7.50 99.70 20 1007
SI 03:00:00 NR -7.57 99.73 20 1007
SI 06:00:00 NR -7.77 99.96 20 1006 20 1006
SI 09:00:00 NR -8.01 100.19 22 1005
SI 12:00:00 NR -8.25 100.41 25 1004 25 1004
SI 15:00:00 NR -8.48 100.64 27 1002
SI 18:00:00 NR -8.72 100.86 30 1001 30 1001
SI 21:00:00 NR -8.96 101.08 32 999
SI 2013-04-08 00:00:00 NR -9.20 101.31 35 998 35 998
SI 01:10:00 NR -9.29 101.40 26 997
SI 02:11:00 NR -9.34 101.32 20 20 997
SI 03:00:00 NR -9.37 101.32 23 997
SI 06:00:00 NR -9.36 101.66 35 997 20 1007 35 997
SI 09:00:00 NR -9.50 101.80 22 1005 35 997
SI 09:03:00 NR -9.50 101.83 22 1005 35 997
SI 10:13:00 NR -9.63 101.90 23 1004 35 997
SI 12:00:00 TS -9.92 102.01 35 997 25 1004 35 997
SI 13:49:00 TS -10.12 102.06 26 1002 35 997
SI 15:00:00 TS -10.25 102.10 27 1002 35 997
SI 18:00:00 TS -10.59 102.20 35 998 30 1000 35 998
SI 20:11:00 TS -10.84 102.28 31 998 36 997
SI 21:00:00 TS -10.97 102.31 32 998 37 997
SI 22:44:00 TS -11.26 102.37 33 996 38 996
SI 2013-04-09 00:00:00 TS -11.47 102.40 40 996 35 996 40 996
SI 02:21:00 TS -11.83 102.48 38 993 41 994
SI 03:00:00 TS -11.93 102.51 40 992 42 994
SI 06:00:00 TS -12.41 102.68 45 993 45 989 45 993
SI 08:47:00 TS -12.84 102.84 47 987 49 990
SI 09:00:00 TS -12.87 102.85 47 987 50 990
SI 11:00:00 TS -13.13 102.97 49 985 53 987
SI 12:00:00 TS -13.28 103.04 55 987 50 985 55 987
SI 13:36:00 TS -13.50 103.16 52 983 57 984
SI 15:00:00 TS -13.69 103.24 55 981 60 983
SI 18:00:00 TS -14.07 103.35 65 979 60 978 65 979
SI 21:00:00 TS -14.48 103.43 62 976 70 975
SI 22:32:00 TS -14.69 103.48 63 974 72 972
SI 2013-04-10 00:00:00 TS -14.90 103.54 75 971 65 974 75 971
SI 01:27:00 TS -15.10 103.68 67 972 75 971
SI 03:00:00 TS -15.28 103.75 70 970 75 971
SI 06:00:00 TS -15.56 103.78 75 971 75 967 75 971
SI 08:31:00 TS -15.79 103.81 72 968 75 971
SI 09:00:00 TS -15.83 103.82 72 968 75 971
SI 12:00:00 TS -16.07 103.94 75 971 70 970 75 971
SI 13:23:00 TS -16.15 104.05 70 970 72 972
SI 15:00:00 TS -16.28 104.15 70 970 70 973
SI 18:00:00 TS -16.61 104.28 65 976 70 970 65 976
SI 21:00:00 TS -16.91 104.39 70 970 60 981
SI 22:20:00 TS -17.17 104.42 70 970 57 983
SI 22:39:00 TS -17.25 104.43 70 970 57 984
SI 2013-04-11 00:00:00 TS -17.53 104.49 55 987 70 970 55 987
SI 03:00:00 TS -18.11 104.59 65 974 50 990
SI 06:00:00 TS -18.72 104.69 45 993 60 978 45 993
SI 08:14:00 TS -19.21 104.78 56 980 43 994
SI 09:00:00 TS -19.36 104.81 55 981 42 994
SI 10:54:00 TS -19.73 104.88 51 983 40 995
SI 12:00:00 TS -19.99 104.94 40 996 50 985 40 996
SI 15:00:00 TS -20.68 105.09 45 989 37 997
SI 18:00:00 TS -21.45 105.31 35 999 40 993 35 999
SI 21:00:00 TS -22.25 105.63 30 1000 32 1001
SI 22:08:00 TS -22.78 105.73 26 1002 31 1001
SI 2013-04-12 00:00:00 NR -24.15 105.83 30 1003 20 1007 30 1003
SI 02:30:00 NR -26.70 105.60

Source Information

Agency Information
USA bsh222013.dat
TOKYO
CMA
HKO
NEWDELHI
REUNION
BOM IDCKMSTM0S.csv:Line=25233:Victoria
NADI
WELLINGTON
DS824
TD9636
TD9635
NEUMANN
MLC

All available IBTrACS Data

SEASON BASIN SUBBASIN ISO_TIME_________ NATURE LAT LON WMO WIND WMO PRES WMO AGENCY DIST2LAND LANDFALL IFLAG USA AGENCY USA ATCF_ID USA LAT USA LON USA STATUS USA WIND USA PRES USA SSHS USA R34 USA R50 USA R64 USA POCI USA ROCI USA RMW USA EYE BOM LAT BOM LON BOM TYPE BOM WIND BOM PRES BOM TNUM BOM CI BOM RMW BOM R34 BOM R50 BOM ROCI BOM POCI BOM EYE BOM POS_METHOD BOM PRES_METHOD USA GUST BOM GUST BOM GUST_PER STORM SPEED STORM DIR
Year degrees north degrees east kts mb km km degrees north degrees east kts mb 1 nmile nmile nmile mb nmile nmile nmile degrees north degrees east kts mb 1 1 nmile nmile nmile nmile mb nmile kts kts second kts degrees
2013 SI WA 2013-04-06 12:00:00 NR -5.70 99.20 15 bom 386 386 ______O_______ -1 -5.70 99.20 20 15 79 1008 3 45 45 5 153
2013 SI WA 14:41:00 NR -5.90 99.30 bom 394 394 ______I_______ -1 -5.90 99.30 20 15 96 1008 5 153
2013 SI WA 15:00:00 NR -5.92 99.31 394 391 ______P_______ -1 -5.92 99.31 20 15 99 1008 5 158
2013 SI WA 18:00:00 NR -6.14 99.40 15 1008 bom 398 396 ______O_______ -1 -6.14 99.40 20 15 1008 119 1008 3 5 45 45 3 151
2013 SI WA 21:00:00 NR -6.22 99.48 396 396 ______P_______ -1 -6.22 99.48 20 17 1008 164 1009 5 159
2013 SI WA 23:00:00 NR -6.50 99.54 bom 418 417 ______I_______ -1 -6.50 99.54 20 19 1008 194 1009 3 12 170
2013 SI WA 2013-04-07 00:00:00 NR -6.78 99.58 20 1008 bom 433 433 ______O_______ -1 -6.78 99.58 20 20 1008 210 1010 3 5 45 45 17 171
2013 SI WA 02:34:00 NR -7.50 99.70 bom 486 486 ______I_______ -1 -7.50 99.70 20 20 1007 196 1009 16 170
2013 SI WA 03:00:00 NR -7.57 99.73 495 488 ______P_______ -1 -7.57 99.73 20 20 1007 194 1009 7 136
2013 SI WA 06:00:00 NR -7.77 99.96 20 1006 bom 489 489 ______O_______ -1 -7.77 99.96 20 20 1006 179 1008 5 45 45 6 134
2013 SI WA 09:00:00 NR -8.01 100.19 492 492 ______P_______ -1 -8.01 100.19 20 22 1005 119 1008 7 137
2013 SI WA 12:00:00 NR -8.25 100.41 25 1004 bom 497 497 ______O_______ -1 -8.25 100.41 20 25 1004 59 1009 5 45 45 7 137
2013 SI WA 15:00:00 NR -8.48 100.64 510 504 ______P_______ -1 -8.48 100.64 20 27 1002 89 1008 7 137
2013 SI WA 18:00:00 NR -8.72 100.86 30 1001 bom 511 509 ______O_______ -1 -8.72 100.86 20 30 1001 119 1008 5 45 45 7 137
2013 SI WA 21:00:00 NR -8.96 101.08 514 501 ______P_______ -1 -8.96 101.08 20 32 999 104 1008 7 137
2013 SI WA 2013-04-08 00:00:00 NR -9.20 101.31 35 998 bom 506 497 ______O_______ -1 -9.20 101.31 21 35 998 1.00 1.00 59 ,130,59, 90 1008 5 49 49 7 136
2013 SI WA 01:10:00 NR -9.29 101.40 bom 503 503 ______I_______ -1 -9.29 101.40 21 26 997 59 ,130,59, 107 1008 4 169
2013 SI WA 02:11:00 NR -9.34 101.32 20 bom 512 512 ______I_______ -1 -9.34 101.32 21 20 997 59 ,130,59, 122 1008 45 45 4 226
2013 SI WA 03:00:00 NR -9.37 101.32 519 492 ______P_______ -1 -9.37 101.32 21 23 997 59 ,130,59, 134 1008 5 93
2013 SI WA 06:00:00 NR -9.36 101.66 35 997 bom 483 483 O_____O_______ jtwc_sh SH222013 -9.10 102.00 DB 20 1007 -3 -9.42 101.58 21 35 997 1.00 1.00 59 ,130,59, 179 1008 3 5 49 49 5 105
2013 SI WA 09:00:00 NR -9.50 101.80 481 481 P_____P_______ SH222013 -9.50 101.99 DB 22 1005 -3 -9.50 101.70 21 35 997 59 ,130,59, 179 1009 4 133
2013 SI WA 09:03:00 NR -9.50 101.83 bom 481 464 P_____I_______ SH222013 -9.51 101.99 DB 22 1005 -3 -9.50 101.70 21 35 997 59 ,130,59, 179 1009 8 145
2013 SI WA 10:13:00 NR -9.63 101.90 bom 480 480 P_____I_______ SH222013 -9.66 101.99 DB 23 1004 -3 -9.60 101.80 21 35 997 59 ,130,59, 179 1009 9 157
2013 SI WA 12:00:00 TS -9.92 102.01 35 997 bom 494 494 O_____O_______ jtwc_sh SH222013 -9.90 102.00 TD 25 1004 -1 -9.94 102.02 21 35 997 1.50 1.50 59 ,130,59, 179 1010 3 5 49 49 9 162
2013 SI WA 13:49:00 TS -10.12 102.06 bom 503 503 P_____I_______ SH222013 -10.14 102.02 TD 26 1002 -1 -10.10 102.10 21 35 997 52 ,130,59, 164 1009 7 167
2013 SI WA 15:00:00 TS -10.25 102.10 519 519 P_____P_______ SH222013 -10.30 102.04 TD 27 1002 -1 -10.21 102.16 21 35 997 49 ,130,59, 154 1009 7 164
2013 SI WA 18:00:00 TS -10.59 102.20 35 998 bom 538 538 O_____O_______ jtwc_sh SH222013 -10.70 102.10 TD 30 1000 -1 1006 160 35 -10.49 102.30 30 35 998 2.00 2.00 39 59,130,59,59 130 1008 3 5 49 49 7 163
2013 SI WA 20:11:00 TS -10.84 102.28 bom 549 559 P_____I_______ SH222013 -10.99 102.16 TD 31 998 -1 1006 167 33 -10.70 102.40 30 36 997 31 59,130,59,59 133 1008 8 163
2013 SI WA 21:00:00 TS -10.97 102.31 568 568 P_____P_______ SH222013 -11.09 102.19 TD 32 998 -1 1006 170 32 -10.84 102.44 30 37 997 29 59,130,59,59 134 1008 10 169
2013 SI WA 22:44:00 TS -11.26 102.37 bom 590 590 P_____I_______ SH222013 -11.32 102.25 TD 33 996 -1 1006 175 31 -11.20 102.50 30 38 996 23 59,130,59,59 137 1008 10 170
2013 SI WA 2013-04-09 00:00:00 TS -11.47 102.40 40 996 bom 609 609 O_____O_______ jtwc_sh SH222013 -11.50 102.30 TS 35 996 0 1007 180 30 -11.43 102.50 30 40 996 2.50 2.50 19 59,130,59,59 139 1008 3 5 55 55 10 170
2013 SI WA 02:21:00 TS -11.83 102.48 bom 633 633 P_____I_______ SH222013 -11.85 102.40 TS 38 993 0 1007 180 30 -11.80 102.55 30 41 994 17 71,114,71,71 154 1008 10 167
2013 SI WA 03:00:00 TS -11.93 102.51 643 643 P_____P_______ SH222013 -11.95 102.44 TS 40 992 0 1007 180 30 -11.91 102.58 30 42 994 17 74,110,74,74 159 1008 10 162
2013 SI WA 06:00:00 TS -12.41 102.68 45 993 bom 684 684 O_____O_______ jtwc_sh SH222013 -12.40 102.60 TS 45 989 0 45,45,45,45 1007 180 30 -12.42 102.75 30 45 993 3.00 3.00 15 90,90,90,90 179 1008 3 5 64 64 10 160
2013 SI WA 08:47:00 TS -12.84 102.84 bom 721 721 P_____I_______ SH222013 -12.78 102.78 TS 47 987 0 40,45,42,40 1007 184 30 -12.90 102.90 30 49 990 12 80,80,80,80 160 1008 10 159
2013 SI WA 09:00:00 TS -12.87 102.85 725 725 P_____P_______ SH222013 -12.81 102.79 TS 47 987 0 40,45,42,40 1007 185 30 -12.93 102.91 30 50 990 12 80,80,80,80 159 1008 9 157
2013 SI WA 11:00:00 TS -13.13 102.97 bom 738 748 P_____I_______ SH222013 -13.07 102.93 TS 49 985 0 36,45,40,36 1007 188 30 -13.20 103.00 30 53 987 10 73,73,73,73 145 1008 9 155
2013 SI WA 12:00:00 TS -13.28 103.04 55 987 bom 758 753 O_____O_______ jtwc_sh SH222013 -13.20 103.00 TS 50 985 0 35,45,40,35 1007 190 30 -13.35 103.08 30 55 987 3.50 3.50 10 70,70,70,70 139 1008 3 5 75 75 10 154
2013 SI WA 13:36:00 TS -13.50 103.16 bom 767 767 P_____I_______ SH222013 -13.41 103.12 TS 52 983 0 40,50,45,40 1007 188 28 -13.60 103.20 30 57 984 10 70,70,70,70 141 1008 9 156
2013 SI WA 15:00:00 TS -13.69 103.24 787 782 P_____P_______ SH222013 -13.59 103.22 TS 55 981 0 45,55,50,45 1007 187 27 -13.79 103.26 30 60 983 10 70,70,70,70 144 1008 8 162
2013 SI WA 18:00:00 TS -14.07 103.35 65 979 bom 818 818 O_____O_______ jtwc_sh SH222013 -14.00 103.40 TS 60 978 0 55,65,60,55 1007 185 25 -14.14 103.30 40 65 979 4.00 4.00 10 70,70,70,70 150 1008 3 5 89 89 8 167
2013 SI WA 21:00:00 TS -14.48 103.43 859 859 P_____P_______ SH222013 -14.45 103.52 TS 62 976 0 60,70,65,60 1007 182 25 -14.50 103.35 40 70 975 10 70,70,70,70 154 1008 8 169
2013 SI WA 22:32:00 TS -14.69 103.48 bom 876 876 P_____I_______ SH222013 -14.68 103.56 TS 63 974 0 62,72,67,62 1007 181 25 -14.70 103.40 40 72 972 10 70,70,70,70 156 1008 9 167
2013 SI WA 2013-04-10 00:00:00 TS -14.90 103.54 75 971 bom 897 893 O_____O_______ jtwc_sh SH222013 -14.90 103.60 TY 65 974 1 65,75,70,65 25,30,25,25 1007 180 25 -14.90 103.47 40 75 971 5.00 5.00 10 70,70,70,70 159 1008 4 4 5 104 104 9 155
2013 SI WA 01:27:00 TS -15.10 103.68 bom 911 911 P_____I_______ SH222013 -15.11 103.65 TY 67 972 1 67,77,72,67 27,32,27,27 1007 184 23 -15.10 103.70 40 75 971 11 70,74,74,70 151 1007 9 151
2013 SI WA 03:00:00 TS -15.28 103.75 929 929 P_____P_______ SH222013 -15.32 103.71 TY 70 970 1 70,80,75,70 30,35,30,30 1007 190 22 -15.25 103.80 40 75 971 12 70,80,80,70 144 1007 6 168
2013 SI WA 06:00:00 TS -15.56 103.78 75 971 bom 961 961 O_____O_______ jtwc_sh SH222013 -15.70 103.80 TY 75 967 1 75,85,80,75 35,40,35,35 20,20,20,20 1007 200 20 20 -15.42 103.76 40 75 971 4.50 5.00 15 70,90,90,70 130 1006 4 4 5 104 104 6 173
2013 SI WA 08:31:00 TS -15.79 103.81 bom 982 982 P_____I_______ SH222013 -15.97 103.82 TY 72 968 1 77,87,82,77 37,42,37,37 22,24,24,22 1007 204 20 -15.60 103.80 40 75 971 16 70,90,90,70 150 1006 5 173
2013 SI WA 09:00:00 TS -15.83 103.82 982 982 P_____P_______ SH222013 -16.02 103.83 TY 72 968 1 77,87,82,77 37,42,37,37 22,25,25,22 1007 205 20 -15.64 103.81 40 75 971 17 70,90,90,70 154 1007 5 156
2013 SI WA 12:00:00 TS -16.07 103.94 75 971 bom 1011 1008 O_____O_______ jtwc_sh SH222013 -16.30 103.90 TY 70 970 1 80,90,85,80 40,45,40,40 25,30,30,25 1007 210 20 -15.84 103.98 40 75 971 4.50 5.00 19 70,90,90,70 179 1008 3 5 100 104 104 5 146
2013 SI WA 13:23:00 TS -16.15 104.05 bom 1019 1016 P_____I_______ SH222013 -16.41 104.00 TY 70 970 1 80,90,85,80 40,45,40,40 1007 212 20 -15.90 104.10 40 72 972 20 70,90,90,70 172 1007 6 137
2013 SI WA 15:00:00 TS -16.28 104.15 1027 1024 P_____P_______ SH222013 -16.53 104.14 TY 70 970 1 80,90,85,80 40,45,40,40 1007 215 20 -16.04 104.16 40 70 973 21 70,90,90,70 164 1007 7 155
2013 SI WA 18:00:00 TS -16.61 104.28 65 976 bom 1055 1055 O_____O_______ jtwc_sh SH222013 -16.80 104.40 TY 70 970 1 80,90,85,80 40,45,40,40 1007 220 20 -16.42 104.15 40 65 976 4.00 4.50 24 70,90,90,70 150 1006 3 5 89 89 7 160
2013 SI WA 21:00:00 TS -16.91 104.39 1085 1085 P_____P_______ SH222013 -17.22 104.58 TY 70 970 1 80,90,85,80 40,45,40,40 1007 222 22 -16.59 104.19 40 60 981 29 50,80,80,50 164 1007 8 166
2013 SI WA 22:20:00 TS -17.17 104.42 bom 1118 1118 P_____I_______ SH222013 -17.43 104.64 TY 70 970 1 80,90,85,80 40,45,40,40 1007 223 23 -16.90 104.20 40 57 983 31 41,75,75,41 170 1007 12 175
2013 SI WA 22:39:00 TS -17.25 104.43 bom 1118 1108 P_____I_______ SH222013 -17.48 104.65 TY 70 970 1 80,90,85,80 40,45,40,40 1007 223 23 -17.01 104.20 40 57 984 32 38,74,74,38 172 1007 13 172
2013 SI WA 2013-04-11 00:00:00 TS -17.53 104.49 55 987 bom 1108 1064 O_____O_______ jtwc_sh SH222013 -17.70 104.70 TY 70 970 1 80,90,85,80 40,45,40,40 1007 225 25 -17.35 104.27 30 55 987 3.50 4.00 35 30,70,70,30 ,39, , 179 1008 3 5 75 75 12 170
2013 SI WA 03:00:00 TS -18.11 104.59 1064 1023 P_____P_______ SH222013 -18.13 104.76 TY 65 974 1 85,90,75,72 40,45,40,40 1006 230 25 -18.10 104.42 30 50 990 37 30,70,70,30 179 1008 12 171
2013 SI WA 06:00:00 TS -18.72 104.69 45 993 bom 1023 989 O_____O_______ jtwc_sh SH222013 -18.60 104.80 TS 60 978 0 90,90,65,65 40,45,40,40 1006 235 25 -18.84 104.58 30 45 993 3.00 3.50 39 30,70,70,30 179 1008 3 5 64 64 13 171
2013 SI WA 08:14:00 TS -19.21 104.78 bom 989 985 P_____I_______ SH222013 -19.02 104.86 TS 56 980 0 90,90,61, 1006 233 28 -19.40 104.70 30 43 994 43 44,70, , 179 1008 13 170
2013 SI WA 09:00:00 TS -19.36 104.81 980 958 P_____P_______ SH222013 -19.17 104.89 TS 55 981 0 90,90,60, 1006 232 30 -19.54 104.73 30 42 994 44 50,70, , 179 1008 12 170
2013 SI WA 10:54:00 TS -19.73 104.88 bom 958 946 P_____I_______ SH222013 -19.57 104.95 TS 51 983 0 90,90,56, 1006 230 33 -19.90 104.80 30 40 995 47 62,70, , 179 1008 13 169
2013 SI WA 12:00:00 TS -19.99 104.94 40 996 bom 946 906 O_____O_______ jtwc_sh SH222013 -19.80 105.00 TS 50 985 0 90,90,55, 1006 230 35 -20.19 104.88 21 40 996 2.50 3.00 50 70,70, , 179 1008 3 5 55 55 14 168
2013 SI WA 15:00:00 TS -20.68 105.09 903 865 P_____P_______ SH222013 -20.37 105.09 TS 45 989 0 90,90,55, 1006 230 35 -20.99 105.10 21 37 997 50 70,70, , 179 1008 15 167
2013 SI WA 18:00:00 TS -21.45 105.31 35 999 bom 865 823 O_____O_______ jtwc_sh SH222013 -21.10 105.30 TS 40 993 0 90,90,55,15 1006 230 35 -21.80 105.31 21 35 999 1.50 2.50 50 70,70, , 179 1008 3 5 49 49 17 162
2013 SI WA 21:00:00 TS -22.25 105.63 822 807 P_____P_______ SH222013 -22.15 105.73 TS 30 1000 -1 1006 230 37 -22.33 105.55 21 32 1001 20 163
2013 SI WA 22:08:00 TS -22.78 105.73 bom 804 771 P_____I_______ SH222013 -22.61 105.94 TS 26 1002 -1 1006 230 38 -22.90 105.60 21 31 1001 38 174
2013 SI WA 2013-04-12 00:00:00 NR -24.15 105.83 30 1003 bom 770 756 O_____O_______ jtwc_sh SH222013 -23.40 106.30 DB 20 1007 -3 1007 230 40 -24.52 105.60 20 30 1003 1.00 1.50 3 5 45 45 54 182
2013 SI WA 02:30:00 NR -26.70 105.60 bom 766 ______O_______ SH222013 DB -3 -26.70 105.60 20 3 62 185